Time;durP1;ratioP1;P1;durP2;ratioP2;P2;SDS_P1;SDS_P2;PMS_P1;PMS_P2;Temp;Humidity;BMP_temperature;BMP_pressure;BME280_temperature;BME280_humidity;BME280_pressure;Samples;Min_cycle;Max_cycle;Signal;HPM_P1;HPM_P2
2021/12/23 00:00:11;;;;;;;52.63;25.77;;;;;;;-0.45;54.48;100977.62;4390028;32;34011;-74
2021/12/23 00:02:42;;;;;;;45.77;22.80;;;;;;;-0.58;54.71;100983.00;4353115;32;34238;-74
2021/12/23 00:05:10;;;;;;;48.97;23.73;;;;;;;-0.55;54.84;100981.91;4377512;32;33800;-74
2021/12/23 00:07:41;;;;;;;48.27;23.80;;;;;;;-0.60;55.10;100973.28;4352947;32;32092;-74
2021/12/23 00:10:09;;;;;;;47.47;23.47;;;;;;;-0.61;55.38;100987.72;4377703;32;34560;-74
2021/12/23 00:12:43;;;;;;;48.73;23.73;;;;;;;-0.62;55.30;100978.78;4377508;32;35138;-74
2021/12/23 00:15:29;;;;;;;48.93;23.47;;;;;;;-0.80;55.47;100980.06;4377550;32;34602;-74
2021/12/23 00:23:25;;;;;;;39.27;20.40;;;;;;;-0.78;55.35;100972.75;4390034;32;34545;-74
2021/12/23 00:25:56;;;;;;;44.40;21.90;;;;;;;-0.79;55.06;100960.25;4379408;32;32303;-74
2021/12/23 00:28:27;;;;;;;40.37;20.63;;;;;;;-0.81;55.03;100956.78;4365025;32;33243;-74
2021/12/23 00:30:59;;;;;;;42.30;20.47;;;;;;;-0.92;55.12;100964.75;4365369;32;34437;-74
2021/12/23 00:33:30;;;;;;;43.50;22.87;;;;;;;-0.97;55.15;100948.87;4352788;32;32939;-74
2021/12/23 00:36:03;;;;;;;47.93;22.23;;;;;;;-0.83;55.14;100959.59;4352835;32;33340;-74
2021/12/23 00:38:43;;;;;;;48.67;22.37;;;;;;;-0.92;55.16;100962.03;4377244;32;33317;-76
2021/12/23 00:41:17;;;;;;;54.27;23.63;;;;;;;-0.91;56.78;100953.00;4375683;32;34571;-74
2021/12/23 00:43:50;;;;;;;43.70;21.90;;;;;;;-0.55;63.57;100953.13;4377603;32;34358;-74
2021/12/23 00:46:24;;;;;;;48.13;23.17;;;;;;;-0.63;60.12;100946.53;4364869;32;34207;-74
2021/12/23 00:48:54;;;;;;;52.33;21.10;;;;;;;-0.67;57.01;100951.31;4364768;32;31790;-74
2021/12/23 00:51:30;;;;;;;42.37;19.10;;;;;;;-0.79;56.17;100936.84;4353037;32;33662;-74
2021/12/23 00:54:04;;;;;;;49.37;21.57;;;;;;;-0.78;55.60;100943.97;4364818;32;34066;-74
2021/12/23 00:56:40;;;;;;;40.87;20.03;;;;;;;-0.85;55.47;100948.03;4365209;32;34010;-74
2021/12/23 00:59:15;;;;;;;43.90;19.77;;;;;;;-0.78;55.05;100945.78;4365023;32;33372;-74
2021/12/23 01:01:46;;;;;;;45.65;19.60;;;;;;;-0.92;55.20;100940.50;4340814;32;32008;-74
2021/12/23 01:04:19;;;;;;;39.97;18.50;;;;;;;-0.70;54.50;100948.81;4352966;32;34102;-74
2021/12/23 01:06:54;;;;;;;44.63;19.40;;;;;;;-0.95;54.91;100940.69;4353355;32;32894;-74
2021/12/23 01:09:28;;;;;;;38.17;19.07;;;;;;;-1.29;55.76;100932.19;4377123;32;31917;-74
2021/12/23 01:11:58;;;;;;;39.90;17.80;;;;;;;-0.98;55.24;100931.00;4378268;32;34277;-74
2021/12/23 01:14:41;;;;;;;38.63;19.67;;;;;;;-0.94;54.95;100934.34;4377135;32;34089;-74
2021/12/23 01:17:30;;;;;;;40.13;18.03;;;;;;;-1.11;55.18;100924.72;4353409;32;32496;-74
2021/12/23 01:20:03;;;;;;;33.60;16.93;;;;;;;-1.11;55.14;100933.66;4342048;32;31876;-74
2021/12/23 01:22:37;;;;;;;38.67;19.87;;;;;;;-1.14;55.08;100931.16;4377177;32;34171;-74
2021/12/23 01:25:10;;;;;;;38.47;19.60;;;;;;;-1.15;54.93;100918.66;4364767;32;34487;-74
2021/12/23 01:27:46;;;;;;;36.87;18.33;;;;;;;-1.29;55.69;100916.03;4365028;32;33785;-74
2021/12/23 01:30:19;;;;;;;40.23;17.90;;;;;;;-1.17;55.14;100923.28;4363739;32;34194;-74
2021/12/23 01:32:54;;;;;;;36.40;17.97;;;;;;;-1.22;55.27;100922.75;4339767;32;32286;-74
2021/12/23 01:35:26;;;;;;;37.03;18.90;;;;;;;-1.31;55.21;100927.91;4352461;32;34448;-74
2021/12/23 01:38:01;;;;;;;36.77;19.30;;;;;;;-1.27;54.99;100924.87;4364643;32;33654;-74
2021/12/23 01:40:34;;;;;;;37.37;18.27;;;;;;;-1.40;55.08;100924.00;4364860;32;34111;-74
2021/12/23 01:43:05;;;;;;;39.23;16.93;;;;;;;-1.48;55.31;100918.25;4364304;32;33853;-74
2021/12/23 01:45:39;;;;;;;38.07;17.77;;;;;;;-1.55;55.44;100914.25;4364625;32;35241;-74
2021/12/23 01:48:14;;;;;;;37.53;17.70;;;;;;;-1.37;54.99;100913.91;4364438;32;34143;-74
2021/12/23 01:50:45;;;;;;;35.70;18.67;;;;;;;-1.29;54.65;100907.09;4352521;32;32011;-74
2021/12/23 01:53:17;;;;;;;34.57;17.13;;;;;;;-1.30;54.79;100913.47;4377885;32;34595;-74
2021/12/23 01:55:50;;;;;;;35.43;17.03;;;;;;;-1.46;55.33;100898.34;4351692;32;32661;-74
2021/12/23 01:58:27;;;;;;;31.97;16.53;;;;;;;-1.30;54.91;100898.19;4364308;32;33142;-74
2021/12/23 02:00:57;;;;;;;36.22;15.57;;;;;;;-1.50;55.10;100895.97;4351908;32;34193;-74
2021/12/23 02:03:29;;;;;;;32.43;16.20;;;;;;;-1.44;55.05;100899.13;4364025;32;33440;-74
2021/12/23 02:06:07;;;;;;;29.50;15.20;;;;;;;-1.47;55.03;100887.69;4364447;32;34342;-74
2021/12/23 02:08:39;;;;;;;34.53;15.27;;;;;;;-1.49;55.23;100887.78;4364615;32;33301;-74
2021/12/23 02:11:13;;;;;;;29.73;15.77;;;;;;;-1.31;54.93;100888.37;4364292;32;33570;-74
2021/12/23 02:13:43;;;;;;;28.60;15.13;;;;;;;-1.49;55.44;100890.47;4364312;32;33962;-74
2021/12/23 02:16:13;;;;;;;32.23;15.17;;;;;;;-1.36;55.05;100886.00;4352186;32;35357;-74
2021/12/23 02:18:49;;;;;;;27.67;14.50;;;;;;;-1.28;55.02;100880.06;4352320;32;32674;-74
2021/12/23 02:21:20;;;;;;;30.27;14.17;;;;;;;-1.49;55.59;100879.72;4351828;32;32037;-74
2021/12/23 02:23:51;;;;;;;32.50;15.47;;;;;;;-1.30;55.14;100876.66;4364012;32;32161;-74
2021/12/23 02:26:25;;;;;;;28.90;15.30;;;;;;;-1.70;55.70;100879.31;4363855;32;34277;-74
2021/12/23 02:28:53;;;;;;;30.97;15.50;;;;;;;-1.49;55.56;100874.34;4363973;32;32904;-74
2021/12/23 02:31:32;;;;;;;28.27;14.80;;;;;;;-1.48;55.68;100870.69;4364700;32;33435;-74
2021/12/23 02:34:08;;;;;;;32.17;15.30;;;;;;;-1.44;55.30;100864.13;4364057;32;33624;-74
2021/12/23 02:36:41;;;;;;;30.58;15.00;;;;;;;-1.43;55.26;100867.66;4364084;32;33129;-74
2021/12/23 02:39:14;;;;;;;29.90;15.57;;;;;;;-1.57;55.56;100862.34;4351398;32;33354;-74
2021/12/23 02:41:47;;;;;;;32.27;15.13;;;;;;;-1.51;55.40;100856.56;4363835;32;31955;-74
2021/12/23 02:44:17;;;;;;;32.73;15.33;;;;;;;-1.73;55.58;100857.13;4365677;32;33155;-74
2021/12/23 02:46:48;;;;;;;31.40;13.93;;;;;;;-1.62;55.47;100851.03;4341498;32;33099;-74
2021/12/23 02:49:19;;;;;;;28.73;14.57;;;;;;;-1.63;55.65;100852.84;4352973;32;33357;-74
2021/12/23 02:51:49;;;;;;;25.73;13.27;;;;;;;-1.77;55.99;100837.63;4353072;32;33161;-74
2021/12/23 02:54:22;;;;;;;27.03;14.60;;;;;;;-1.56;55.51;100838.03;4364942;32;33623;-74
2021/12/23 02:56:58;;;;;;;28.10;14.70;;;;;;;-1.76;55.88;100841.19;4365550;32;35180;-74
2021/12/23 02:59:31;;;;;;;31.30;15.40;;;;;;;-1.76;55.98;100844.75;4353705;32;33203;-74
2021/12/23 03:02:07;;;;;;;30.77;14.30;;;;;;;-1.68;55.90;100837.03;4353885;32;31944;-74
2021/12/23 03:04:35;;;;;;;31.83;15.13;;;;;;;-1.55;55.52;100831.69;4365419;32;33210;-74
2021/12/23 03:07:06;;;;;;;31.73;15.30;;;;;;;-1.58;55.51;100836.41;4365401;32;32895;-74
2021/12/23 03:09:36;;;;;;;31.90;13.53;;;;;;;-1.67;55.64;100837.88;4365997;32;33454;-74
2021/12/23 03:12:21;;;;;;;31.43;15.63;;;;;;;-1.50;55.23;100834.91;4366947;32;33438;-74
2021/12/23 03:14:51;;;;;;;33.50;14.98;;;;;;;-1.77;55.69;100826.87;4353660;32;33717;-74
2021/12/23 03:17:23;;;;;;;32.20;14.03;;;;;;;-1.53;55.31;100828.88;4341103;32;32800;-74
2021/12/23 03:19:51;;;;;;;31.33;15.40;;;;;;;-1.46;55.02;100830.19;4365378;32;32441;-74
2021/12/23 03:22:19;;;;;;;37.03;16.40;;;;;;;-1.44;55.28;100825.56;4365518;32;32659;-74
2021/12/23 03:24:50;;;;;;;33.33;15.63;;;;;;;-1.59;55.59;100826.59;4353425;32;33702;-74
2021/12/23 03:27:20;;;;;;;31.83;14.80;;;;;;;-1.59;55.61;100823.91;4352967;32;34266;-74
2021/12/23 03:29:51;;;;;;;28.63;14.97;;;;;;;-1.68;55.75;100828.94;4365881;32;34037;-74
2021/12/23 03:32:23;;;;;;;31.50;14.17;;;;;;;-1.95;56.40;100822.75;4353723;32;33395;-74
2021/12/23 03:34:57;;;;;;;29.77;14.97;;;;;;;-1.68;55.97;100825.38;4365793;32;33810;-74
2021/12/23 03:37:27;;;;;;;25.47;12.60;;;;;;;-1.88;56.27;100815.94;4365002;32;34273;-74
2021/12/23 03:39:58;;;;;;;29.33;14.33;;;;;;;-1.72;55.96;100813.97;4353124;32;33965;-74
2021/12/23 03:42:29;;;;;;;29.43;14.30;;;;;;;-1.76;55.99;100807.06;4365250;32;32855;-74
2021/12/23 03:45:00;;;;;;;33.40;13.93;;;;;;;-1.87;56.35;100817.69;4365712;32;34490;-74
2021/12/23 03:47:27;;;;;;;32.57;15.73;;;;;;;-1.84;56.23;100798.66;4353028;32;33980;-74
2021/12/23 03:50:03;;;;;;;35.63;16.20;;;;;;;-1.68;55.91;100814.62;4353100;32;32578;-74
2021/12/23 03:52:31;;;;;;;;;;;;;;;-1.84;56.09;100809.41;4366418;32;34225;-74
2021/12/23 03:55:06;;;;;;;36.17;15.83;;;;;;;-1.60;55.49;100811.41;4365270;32;34810;-74
2021/12/23 03:57:40;;;;;;;32.00;15.50;;;;;;;-1.60;55.40;100811.41;4365079;32;33030;-74
2021/12/23 04:00:15;;;;;;;31.10;14.70;;;;;;;-1.69;55.62;100819.16;4365448;32;34540;-74
2021/12/23 04:02:53;;;;;;;37.53;16.35;;;;;;;-1.62;55.23;100803.44;4364897;32;34331;-74
2021/12/23 04:05:27;;;;;;;30.90;15.13;;;;;;;-1.63;55.46;100798.16;4365497;32;33658;-74
2021/12/23 04:08:03;;;;;;;31.37;14.93;;;;;;;-1.68;55.56;100793.97;4353116;32;32553;-74
2021/12/23 04:10:41;;;;;;;31.10;15.43;;;;;;;-1.76;55.81;100793.63;4365630;32;33731;-74
2021/12/23 04:13:16;;;;;;;31.97;15.70;;;;;;;-1.63;55.38;100795.47;4366154;32;34237;-74
2021/12/23 04:15:47;;;;;;;29.65;14.82;;;;;;;-1.67;55.17;100786.75;4365548;32;33718;-74
2021/12/23 04:18:17;;;;;;;30.90;14.77;;;;;;;-1.88;55.82;100794.44;4353041;32;35386;-74
2021/12/23 04:20:53;;;;;;;33.30;15.53;;;;;;;-1.83;55.93;100795.00;4365073;32;35285;-74
2021/12/23 04:23:33;;;;;;;31.43;15.70;;;;;;;-1.91;55.99;100791.09;4341399;32;33084;-74
2021/12/23 04:26:13;;;;;;;32.43;14.60;;;;;;;-2.01;56.37;100788.19;4365668;32;33736;-74
2021/12/23 04:28:55;;;;;;;32.67;15.23;;;;;;;-1.93;56.36;100793.00;4365002;32;35412;-74
2021/12/23 04:31:27;;;;;;;28.50;14.93;;;;;;;-1.76;55.76;100792.75;4365046;32;34543;-74
2021/12/23 04:33:59;;;;;;;29.27;14.53;;;;;;;-1.80;55.65;100770.56;4365394;32;33348;-74
2021/12/23 04:36:32;;;;;;;33.57;16.77;;;;;;;-1.87;55.79;100771.09;4353344;32;33782;-74
2021/12/23 04:39:06;;;;;;;32.47;16.27;;;;;;;-1.84;55.30;100771.75;4364681;32;34753;-74
2021/12/23 04:41:40;;;;;;;30.83;14.27;;;;;;;-1.96;55.79;100775.28;4378677;32;34738;-76
2021/12/23 04:44:07;;;;;;;28.43;13.53;;;;;;;-1.97;55.81;100786.16;4352431;32;32791;-73
2021/12/23 04:46:36;;;;;;;30.43;13.97;;;;;;;-1.98;55.62;100770.97;4365099;32;33866;-73
2021/12/23 04:49:09;;;;;;;31.40;14.43;;;;;;;-2.00;56.03;100780.00;4365061;32;35155;-73
2021/12/23 04:51:40;;;;;;;24.47;13.43;;;;;;;-2.11;56.00;100773.63;4377399;32;34663;-73
2021/12/23 04:54:10;;;;;;;43.03;19.20;;;;;;;-2.00;55.92;100768.38;4364938;32;31893;-73
2021/12/23 04:56:44;;;;;;;33.60;15.33;;;;;;;-2.02;55.79;100765.78;4377495;32;34037;-74
2021/12/23 04:59:11;;;;;;;27.47;14.13;;;;;;;-2.16;56.57;100767.69;4377442;32;35429;-73
2021/12/23 05:01:39;;;;;;;33.17;15.50;;;;;;;-2.16;56.67;100773.91;4377346;32;34655;-73
2021/12/23 05:04:08;;;;;;;29.97;14.93;;;;;;;-2.05;56.40;100776.75;4377020;32;34074;-73
2021/12/23 05:06:40;;;;;;;30.63;16.10;;;;;;;-2.16;56.82;100781.12;4377323;32;33977;-73
2021/12/23 05:09:10;;;;;;;42.90;20.40;;;;;;;-2.13;56.82;100784.47;4376955;32;34409;-73
2021/12/23 05:11:38;;;;;;;50.30;22.40;;;;;;;-2.21;57.03;100775.19;4378336;32;34753;-73
2021/12/23 05:14:06;;;;;;;61.97;27.00;;;;;;;-1.84;55.95;100763.66;4365158;32;33519;-73
2021/12/23 05:16:39;;;;;;;53.10;23.33;;;;;;;-2.08;56.30;100770.72;4365002;32;33863;-73
2021/12/23 05:19:11;;;;;;;68.20;29.47;;;;;;;-2.32;57.19;100768.69;4364808;32;35236;-73
2021/12/23 05:21:45;;;;;;;50.57;25.17;;;;;;;-2.23;56.57;100766.34;4364824;32;32491;-73
2021/12/23 05:24:16;;;;;;;55.13;29.30;;;;;;;-2.11;56.68;100763.72;4364990;32;33213;-73
2021/12/23 05:26:44;;;;;;;44.67;22.10;;;;;;;-1.98;56.23;100753.00;4352658;32;33189;-73
2021/12/23 05:29:14;;;;;;;35.20;16.80;;;;;;;-2.18;56.59;100743.56;4376970;32;33982;-73
2021/12/23 05:31:46;;;;;;;37.17;16.00;;;;;;;-1.87;55.81;100750.44;4377218;32;34026;-73
2021/12/23 05:34:14;;;;;;;34.40;16.47;;;;;;;-1.81;55.65;100755.41;4365219;32;33583;-73
2021/12/23 05:36:42;;;;;;;32.10;15.27;;;;;;;-2.03;56.06;100758.69;4364002;32;34551;-73
2021/12/23 05:39:09;;;;;;;32.67;16.07;;;;;;;-2.19;56.71;100770.56;4377268;32;34351;-73
2021/12/23 05:41:42;;;;;;;35.67;16.20;;;;;;;-1.20;74.01;100772.69;4378566;32;32411;-73
2021/12/23 05:44:13;;;;;;;46.17;20.40;;;;;;;-1.20;69.56;100775.38;4367539;32;34212;-78
2021/12/23 05:46:47;;;;;;;50.03;21.13;;;;;;;-1.25;66.87;100779.34;4379762;32;33744;-78
2021/12/23 05:49:17;;;;;;;67.60;28.13;;;;;;;-1.50;65.01;100780.22;4367329;32;34735;-76
2021/12/23 05:51:47;;;;;;;45.63;20.87;;;;;;;-1.37;62.31;100773.03;4367255;32;34032;-73
2021/12/23 05:54:15;;;;;;;39.97;17.50;;;;;;;-1.41;60.38;100761.59;4379267;32;34031;-73
2021/12/23 05:56:42;;;;;;;33.00;17.00;;;;;;;-1.26;58.79;100767.72;4378771;32;33641;-73
2021/12/23 05:59:10;;;;;;;34.23;16.37;;;;;;;-1.30;58.09;100768.94;4379079;32;33000;-73
2021/12/23 06:01:38;;;;;;;27.53;14.73;;;;;;;-1.33;57.60;100761.94;4354533;32;32624;-73
2021/12/23 06:04:11;;;;;;;32.53;16.03;;;;;;;-1.36;57.72;100753.22;4367044;32;33467;-73
2021/12/23 06:06:39;;;;;;;37.97;18.10;;;;;;;-1.19;57.24;100750.16;4379147;32;33637;-73
2021/12/23 06:09:07;;;;;;;58.37;25.17;;;;;;;-1.33;57.62;100742.22;4366777;32;34276;-73
2021/12/23 06:11:35;;;;;;;61.90;24.43;;;;;;;-1.29;57.65;100743.69;4366333;32;32543;-74
2021/12/23 06:14:02;;;;;;;55.27;24.60;;;;;;;-1.53;58.48;100748.13;4366377;32;32146;-73
2021/12/23 06:16:30;;;;;;;50.40;20.63;;;;;;;-1.30;58.14;100747.41;4363680;32;33710;-73
2021/12/23 06:18:58;;;;;;;52.13;22.23;;;;;;;-1.18;58.00;100748.34;4378650;32;34153;-73
2021/12/23 06:21:29;;;;;;;48.43;22.30;;;;;;;-1.27;58.50;100749.84;4366502;32;33933;-73
2021/12/23 06:23:57;;;;;;;50.87;21.93;;;;;;;-1.08;58.08;100739.50;4379600;32;33309;-73
2021/12/23 06:26:25;;;;;;;44.50;21.00;;;;;;;-1.05;58.57;100744.66;4366284;32;32208;-73
2021/12/23 06:28:52;;;;;;;42.93;21.27;;;;;;;-0.83;58.06;100737.75;4391170;32;34170;-73
2021/12/23 06:31:20;;;;;;;44.23;21.13;;;;;;;-0.78;57.82;100741.84;4379041;32;32499;-73
2021/12/23 06:33:48;;;;;;;42.43;21.00;;;;;;;-0.86;58.28;100737.97;4391403;32;33095;-73
2021/12/23 06:36:15;;;;;;;47.17;21.67;;;;;;;-0.75;58.08;100733.53;4378860;32;33323;-74
2021/12/23 06:38:50;;;;;;;40.83;20.00;;;;;;;-0.65;57.93;100731.03;4391371;32;34276;-73
2021/12/23 06:41:19;;;;;;;40.00;20.37;;;;;;;-0.55;57.80;100734.75;4391263;32;32899;-73
2021/12/23 06:43:49;;;;;;;45.20;19.13;;;;;;;-0.55;58.00;100739.28;4378828;32;34172;-73
2021/12/23 06:46:19;;;;;;;36.20;16.83;;;;;;;-0.45;57.73;100738.47;4379489;32;31597;-73
2021/12/23 06:48:47;;;;;;;38.07;16.67;;;;;;;-0.53;58.16;100734.63;4391375;32;34217;-73
2021/12/23 06:51:17;;;;;;;32.90;16.80;;;;;;;-0.48;58.23;100745.94;4391019;32;32965;-73
2021/12/23 06:53:45;;;;;;;31.33;15.23;;;;;;;-0.27;57.80;100738.97;4376875;32;33291;-73
2021/12/23 06:56:17;;;;;;;34.20;17.23;;;;;;;-0.30;57.97;100741.03;4378761;32;33672;-73
2021/12/23 06:58:50;;;;;;;40.27;18.97;;;;;;;-0.25;58.21;100738.84;4379038;32;34507;-73
2021/12/23 07:01:21;;;;;;;38.40;17.73;;;;;;;-0.25;58.24;100739.72;4390971;32;34397;-73
2021/12/23 07:06:23;;;;;;;38.60;19.33;;;;;;;-0.16;58.09;100747.12;4390719;32;34656;-73
2021/12/23 07:08:54;;;;;;;39.40;20.93;;;;;;;-0.06;57.87;100745.47;4390845;32;34315;-74
2021/12/23 07:11:23;;;;;;;35.07;17.33;;;;;;;-0.11;58.04;100742.25;4388570;32;33930;-73
2021/12/23 07:13:50;;;;;;;38.17;18.83;;;;;;;0.04;57.80;100732.09;4366263;32;34129;-73
2021/12/23 07:16:23;;;;;;;41.07;19.27;;;;;;;-0.17;58.08;100733.75;4353480;32;32296;-73
2021/12/23 07:18:53;;;;;;;36.70;17.03;;;;;;;-0.11;58.12;100727.88;4378199;32;33302;-73
2021/12/23 07:21:26;;;;;;;35.57;17.60;;;;;;;-0.02;57.92;100741.56;4378443;32;33612;-73
2021/12/23 07:23:57;;;;;;;59.33;37.57;;;;;;;0.08;57.54;100733.59;4365953;32;34045;-73
2021/12/23 07:26:27;;;;;;;39.80;20.47;;;;;;;0.09;57.47;100729.06;4365978;32;34578;-73
2021/12/23 07:28:55;;;;;;;45.83;20.77;;;;;;;0.18;57.53;100725.66;4378881;32;35175;-73
2021/12/23 07:31:22;;;;;;;43.40;20.10;;;;;;;0.24;58.06;100723.34;4380581;32;34656;-73
2021/12/23 07:33:51;;;;;;;40.43;18.17;;;;;;;0.30;57.00;100730.97;4368509;32;34062;-73
2021/12/23 07:36:29;;;;;;;36.27;20.17;;;;;;;0.02;56.74;100731.34;4391996;32;33477;-73
2021/12/23 07:38:59;;;;;;;36.33;17.97;;;;;;;0.43;55.85;100728.19;4390017;32;32798;-73
2021/12/23 07:41:34;;;;;;;35.07;17.20;;;;;;;0.53;55.90;100729.22;4369423;32;34694;-73
2021/12/23 07:44:05;;;;;;;42.83;20.70;;;;;;;0.22;56.67;100725.31;4367933;32;33303;-73
2021/12/23 07:46:38;;;;;;;41.97;19.33;;;;;;;0.39;56.56;100721.31;4380250;32;34504;-73
2021/12/23 07:49:06;;;;;;;44.10;19.77;;;;;;;0.21;57.29;100723.59;4368099;32;34174;-73
2021/12/23 07:51:34;;;;;;;41.73;18.27;;;;;;;0.34;56.90;100728.91;4367960;32;34668;-73
2021/12/23 07:54:02;;;;;;;39.93;20.37;;;;;;;0.42;56.69;100721.06;4367684;32;32264;-73
2021/12/23 07:56:29;;;;;;;39.90;19.80;;;;;;;0.45;56.83;100714.56;4367611;32;33609;-73
2021/12/23 07:59:00;;;;;;;40.03;20.10;;;;;;;0.33;56.81;100711.84;4367470;32;34141;-73
2021/12/23 08:01:30;;;;;;;42.83;20.03;;;;;;;0.56;56.33;100706.50;4368044;32;33885;-73
2021/12/23 08:04:01;;;;;;;35.53;18.20;;;;;;;0.67;56.48;100703.78;4367852;32;33541;-73
2021/12/23 08:06:34;;;;;;;34.43;16.50;;;;;;;0.78;56.04;100695.69;4379785;32;34373;-73
2021/12/23 08:09:03;;;;;;;30.20;16.35;;;;;;;0.67;55.90;100692.97;4380310;32;35378;-73
2021/12/23 08:11:31;;;;;;;31.95;15.80;;;;;;;0.87;55.31;100684.16;4368054;32;33942;-73
2021/12/23 08:13:58;;;;;;;31.33;14.53;;;;;;;0.89;55.21;100679.50;4367616;32;34097;-73
2021/12/23 08:16:29;;;;;;;27.33;13.17;;;;;;;0.88;54.72;100685.88;4364942;32;34545;-73
2021/12/23 08:19:02;;;;;;;24.50;11.87;;;;;;;1.05;53.64;100687.22;4380234;32;35237;-73
2021/12/23 08:21:36;;;;;;;25.52;12.90;;;;;;;0.95;53.07;100684.41;4367774;32;33961;-73
2021/12/23 08:24:07;;;;;;;28.87;15.83;;;;;;;0.84;53.21;100684.41;4380032;32;32724;-73
2021/12/23 08:26:41;;;;;;;44.70;19.03;;;;;;;1.16;53.75;100683.66;4379637;32;33761;-74
2021/12/23 08:29:17;;;;;;;27.20;11.77;;;;;;;1.20;52.54;100685.13;4380295;32;34678;-73
2021/12/23 08:31:54;;;;;;;27.73;12.97;;;;;;;1.25;51.91;100672.09;4380644;32;34978;-73
2021/12/23 08:34:26;;;;;;;26.73;12.40;;;;;;;1.11;52.04;100672.34;4379935;32;32110;-73
2021/12/23 08:36:56;;;;;;;29.60;11.88;;;;;;;1.17;51.47;100669.16;4367398;32;32226;-73
2021/12/23 08:39:23;;;;;;;24.07;11.57;;;;;;;1.10;51.48;100662.53;4379647;32;34323;-73
2021/12/23 08:41:51;;;;;;;32.08;12.98;;;;;;;1.28;51.34;100671.84;4364572;32;34638;-73
2021/12/23 08:44:19;;;;;;;26.65;11.85;;;;;;;1.25;51.24;100672.09;4352756;32;32911;-73
2021/12/23 08:46:49;;;;;;;26.50;12.73;;;;;;;1.39;51.33;100682.62;4364942;32;33882;-73
2021/12/23 08:49:17;;;;;;;22.20;11.57;;;;;;;1.39;50.93;100679.06;4364936;32;33298;-73
2021/12/23 08:52:04;;;;;;;21.13;10.83;;;;;;;1.48;51.03;100676.44;4365162;32;34503;-73
2021/12/23 08:54:34;;;;;;;22.48;10.80;;;;;;;1.09;51.27;100677.87;4347158;32;31884;-73
2021/12/23 08:57:07;;;;;;;25.00;13.27;;;;;;;1.42;50.74;100667.97;4352952;32;34654;-73
2021/12/23 08:59:37;;;;;;;29.00;12.80;;;;;;;1.39;50.65;100663.69;4365291;32;35303;-73
2021/12/23 09:02:11;;;;;;;26.60;12.07;;;;;;;1.28;50.64;100666.44;4364963;32;34235;-73
2021/12/23 09:04:41;;;;;;;39.63;16.63;;;;;;;1.45;50.37;100671.28;4363779;32;31669;-74
2021/12/23 09:07:11;;;;;;;29.47;13.60;;;;;;;1.44;50.36;100666.88;4364588;32;32744;-73
2021/12/23 09:09:46;;;;;;;41.10;16.67;;;;;;;1.53;50.60;100660.69;4364482;32;35170;-73
2021/12/23 09:12:16;;;;;;;25.00;11.80;;;;;;;1.48;50.73;100652.09;4346579;32;33623;-73
2021/12/23 09:14:44;;;;;;;21.48;10.32;;;;;;;1.58;49.68;100642.25;4352917;32;33062;-73
2021/12/23 09:17:12;;;;;;;23.47;9.87;;;;;;;1.49;49.00;100636.75;4364651;32;33869;-73
2021/12/23 09:19:45;;;;;;;23.87;9.97;;;;;;;1.59;48.66;100646.66;4377190;32;35055;-73
2021/12/23 09:22:14;;;;;;;19.15;9.65;;;;;;;1.68;48.13;100644.19;4343792;32;32407;-73
2021/12/23 09:24:45;;;;;;;19.27;8.18;;;;;;;1.41;48.13;100626.56;4373655;32;33684;-73
2021/12/23 09:32:52;;;;;;;26.47;12.37;;;;;;;1.68;47.51;100617.13;4378206;32;34192;-73
2021/12/23 09:35:25;;;;;;;19.07;8.37;;;;;;;1.59;47.85;100614.19;4365329;32;34206;-73
2021/12/23 09:37:55;;;;;;;16.93;8.07;;;;;;;1.59;47.05;100605.22;4376370;32;32095;-74
2021/12/23 09:40:29;;;;;;;20.08;8.70;;;;;;;1.71;46.79;100608.75;4364267;32;35240;-74
2021/12/23 09:43:05;;;;;;;16.40;8.30;;;;;;;1.91;46.60;100607.91;4364255;32;32684;-73
2021/12/23 09:45:36;;;;;;;19.03;9.07;;;;;;;1.92;46.34;100596.97;4339785;32;31918;-73
2021/12/23 09:48:04;;;;;;;21.70;8.90;;;;;;;1.90;46.95;100598.94;4362870;32;34576;-74
2021/12/23 09:50:37;;;;;;;17.67;7.80;;;;;;;1.93;47.02;100592.41;4376228;32;35124;-73
2021/12/23 09:53:08;;;;;;;36.00;13.40;;;;;;;1.96;46.00;100592.97;4376044;32;33594;-72
2021/12/23 09:55:40;;;;;;;85.80;30.70;;;;;;;2.45;54.49;100593.28;4364741;32;34194;-73
2021/12/23 09:58:09;;;;;;;45.60;22.40;;;;;;;2.45;52.65;100604.97;4364276;32;32247;-73
2021/12/23 10:00:45;;;;;;;19.23;9.93;;;;;;;2.70;47.21;100603.63;4364072;32;35373;-73
2021/12/23 10:03:17;;;;;;;18.20;8.90;;;;;;;2.75;45.30;100595.09;4376454;32;34513;-73
2021/12/23 10:05:47;;;;;;;16.70;8.80;;;;;;;2.59;44.56;100582.06;4376805;32;32897;-74
2021/12/23 10:08:18;;;;;;;18.30;8.48;;;;;;;2.71;44.59;100577.38;4364506;32;33956;-74
2021/12/23 10:30:25;;;;;;;17.37;9.13;;;;;;;2.67;43.50;100540.72;4353471;32;32134;-73
2021/12/23 10:38:44;;;;;;;14.43;6.75;;;;;;;3.04;43.30;100509.28;4392390;32;32943;-73
2021/12/23 10:41:15;;;;;;;15.68;7.30;;;;;;;3.11;42.44;100510.44;4403516;32;33888;-73
2021/12/23 10:43:52;;;;;;;63.70;29.12;;;;;;;2.95;43.23;100510.97;4407378;32;34322;-74
2021/12/23 10:46:30;;;;;;;19.00;8.65;;;;;;;3.07;42.90;100509.00;4381491;32;32513;-74
2021/12/23 10:52:17;;;;;;;33.03;16.40;;;;;;;3.13;42.04;100475.91;4365932;32;33402;-74
2021/12/23 11:00:28;;;;;;;17.77;7.25;;;;;;;3.42;42.01;100475.88;4385841;32;31733;-73
2021/12/23 11:02:56;;;;;;;29.20;15.07;;;;;;;3.14;42.50;100476.75;4376970;32;34629;-74
2021/12/23 11:05:29;;;;;;;20.08;10.25;;;;;;;3.13;43.27;100472.34;4379282;32;34461;-73
2021/12/23 11:43:59;;;;;;;13.93;6.70;;;;;;;3.40;41.63;100372.06;4366505;32;31867;-72
2021/12/23 11:46:40;;;;;;;13.48;5.85;;;;;;;3.73;40.89;100369.81;4368720;32;33724;-72
2021/12/23 11:49:10;;;;;;;12.18;6.40;;;;;;;3.64;40.49;100353.44;4381191;32;34383;-73
2021/12/23 11:54:11;;;;;;;10.57;5.00;;;;;;;3.73;40.37;100348.97;4368128;32;31981;-72
2021/12/23 11:56:44;;;;;;;16.83;7.97;;;;;;;3.87;40.26;100345.78;4368447;32;34580;-72
2021/12/23 11:59:15;;;;;;;18.12;8.85;;;;;;;3.96;40.54;100342.13;4393675;32;34299;-72
2021/12/23 12:01:47;;;;;;;14.05;6.28;;;;;;;4.03;43.64;100345.09;4380238;32;33612;-72
2021/12/23 12:04:41;;;;;;;13.15;6.07;;;;;;;3.94;40.70;100338.69;4380382;32;34138;-72
2021/12/23 12:07:17;;;;;;;12.93;6.00;;;;;;;4.25;39.95;100331.09;4379130;32;33909;-72
2021/12/23 12:10:02;;;;;;;9.23;5.40;;;;;;;4.12;39.57;100322.44;4367443;32;32839;-72
2021/12/23 12:12:35;;;;;;;10.93;5.05;;;;;;;3.97;40.21;100321.25;4355075;32;32614;-72
2021/12/23 12:15:07;;;;;;;10.73;5.20;;;;;;;3.86;38.85;100319.63;4366929;32;33340;-72
2021/12/23 12:17:36;;;;;;;9.98;5.03;;;;;;;4.17;38.98;100317.41;4380150;32;33822;-72
2021/12/23 12:20:25;;;;;;;12.98;6.00;;;;;;;4.12;38.16;100311.59;4366184;32;34482;-72
2021/12/23 12:23:06;;;;;;;15.23;6.55;;;;;;;4.18;38.57;100312.84;4362330;32;34718;-73
2021/12/23 12:25:41;;;;;;;8.57;4.60;;;;;;;3.87;38.95;100305.03;4385607;32;33711;-73
2021/12/23 12:28:28;;;;;;;10.25;5.15;;;;;;;4.06;38.66;100305.91;4380187;32;34636;-72
2021/12/23 12:30:56;;;;;;;10.95;5.37;;;;;;;3.97;39.03;100302.25;4366978;32;34475;-72
2021/12/23 12:33:26;;;;;;;10.18;4.95;;;;;;;4.23;38.44;100299.66;4386335;32;33963;-72
2021/12/23 12:36:03;;;;;;;12.07;5.85;;;;;;;4.19;38.80;100293.66;4386115;32;33503;-72
2021/12/23 12:38:37;;;;;;;10.52;5.22;;;;;;;4.08;39.29;100285.75;4385253;32;33839;-73
2021/12/23 12:41:32;;;;;;;14.52;7.25;;;;;;;4.13;38.18;100288.00;4371340;32;35153;-72
2021/12/23 12:44:28;;;;;;;11.75;6.22;;;;;;;4.14;38.63;100289.72;4388137;32;33764;-73
2021/12/23 12:47:15;;;;;;;12.85;5.20;;;;;;;4.00;38.75;100293.78;4381346;32;33546;-73
2021/12/23 12:49:44;;;;;;;;;;;;;;;4.17;38.59;100287.53;4383396;32;34438;-72
2021/12/23 12:52:30;;;;;;;14.43;5.07;;;;;;;3.43;38.97;100295.78;4394815;32;34677;-73
2021/12/23 12:55:10;;;;;;;10.82;5.28;;;;;;;3.93;38.27;100279.12;4394725;32;33380;-73
2021/12/23 12:57:42;;;;;;;10.23;5.35;;;;;;;3.96;39.12;100276.09;4391762;32;32044;-73
2021/12/23 13:00:32;;;;;;;9.07;5.35;;;;;;;3.94;39.23;100265.38;4385978;32;34454;-73
2021/12/23 13:03:08;;;;;;;11.75;5.15;;;;;;;3.94;38.43;100264.53;4364503;32;34865;-72